Time;durP1;ratioP1;P1;durP2;ratioP2;P2;SDS_P1;SDS_P2;PMS_P1;PMS_P2;Temp;Humidity;BMP_temperature;BMP_pressure;BME280_temperature;BME280_humidity;BME280_pressure;Samples;Min_cycle;Max_cycle;Signal;HPM_P1;HPM_P2
2023/04/04 00:01:16;;;;;;;1.40;1.30;;;10.20;99.90;;;;;;5010416;28;20500;-48
2023/04/04 00:03:45;;;;;;;1.53;0.90;;;10.20;99.90;;;;;;5018918;28;20434;-49
2023/04/04 00:06:15;;;;;;;1.03;0.83;;;10.20;99.90;;;;;;5007849;28;20495;-47
2023/04/04 00:08:43;;;;;;;1.60;1.10;;;10.10;99.90;;;;;;5002797;28;20449;-51
2023/04/04 00:11:14;;;;;;;1.23;0.90;;;10.10;99.90;;;;;;5004212;28;20465;-49
2023/04/04 00:13:43;;;;;;;1.07;0.83;;;10.10;99.90;;;;;;5000374;28;20881;-48
2023/04/04 00:16:12;;;;;;;1.20;0.90;;;10.10;99.90;;;;;;5008986;28;20451;-49
2023/04/04 00:18:40;;;;;;;1.23;1.00;;;10.10;99.90;;;;;;5021482;28;20455;-48
2023/04/04 00:21:09;;;;;;;0.87;0.80;;;10.10;99.90;;;;;;5006147;28;20505;-47
2023/04/04 00:23:38;;;;;;;0.73;0.67;;;10.10;99.90;;;;;;5005074;28;20461;-49
2023/04/04 00:26:06;;;;;;;0.90;0.90;;;10.10;99.90;;;;;;5001510;28;20472;-48
2023/04/04 00:28:37;;;;;;;2.40;1.00;;;10.10;99.90;;;;;;4998006;28;20958;-49
2023/04/04 00:31:06;;;;;;;1.53;1.43;;;10.10;99.90;;;;;;4997454;28;20475;-48
2023/04/04 00:33:35;;;;;;;0.93;0.83;;;10.10;99.90;;;;;;5022683;28;20539;-47
2023/04/04 00:36:04;;;;;;;2.27;0.90;;;10.10;99.90;;;;;;5002498;28;20826;-48
2023/04/04 00:38:34;;;;;;;1.23;0.87;;;10.10;99.90;;;;;;4999038;28;20988;-48
2023/04/04 00:41:02;;;;;;;1.20;1.10;;;10.10;99.90;;;;;;5000315;28;20481;-49
2023/04/04 00:43:31;;;;;;;1.23;1.00;;;10.10;99.90;;;;;;5014243;28;20442;-47
2023/04/04 00:46:01;;;;;;;1.00;0.90;;;10.10;99.90;;;;;;5018687;28;20492;-48
2023/04/04 00:48:30;;;;;;;1.50;1.10;;;10.10;99.90;;;;;;5017827;28;20862;-48
2023/04/04 00:50:59;;;;;;;0.70;0.70;;;10.10;99.90;;;;;;5006472;28;20508;-48
2023/04/04 00:53:28;;;;;;;1.20;1.07;;;10.10;99.90;;;;;;5004594;28;20452;-48
2023/04/04 00:55:57;;;;;;;0.93;0.83;;;10.10;99.90;;;;;;5006664;28;21058;-48
2023/04/04 00:58:26;;;;;;;1.60;1.13;;;10.10;99.90;;;;;;5007906;28;20449;-48
2023/04/04 01:00:55;;;;;;;1.00;0.90;;;10.10;99.90;;;;;;5001611;28;20480;-48
2023/04/04 01:03:25;;;;;;;1.20;1.10;;;10.00;99.90;;;;;;5008448;28;20537;-48
2023/04/04 01:05:54;;;;;;;1.00;1.00;;;10.10;99.90;;;;;;5006145;28;20484;-47
2023/04/04 01:08:26;;;;;;;1.13;0.90;;;10.00;99.90;;;;;;5011104;28;20448;-49
2023/04/04 01:10:55;;;;;;;3.07;1.30;;;10.00;99.90;;;;;;5004610;28;20483;-48
2023/04/04 01:13:24;;;;;;;1.33;1.10;;;10.00;99.90;;;;;;5010330;28;20477;-47
2023/04/04 01:15:53;;;;;;;2.07;1.10;;;10.00;99.90;;;;;;5008407;28;20485;-47
2023/04/04 01:18:25;;;;;;;1.30;0.97;;;10.10;99.90;;;;;;5007052;28;20441;-49
2023/04/04 01:20:59;;;;;;;2.00;1.10;;;10.00;99.90;;;;;;5007225;28;20472;-49
2023/04/04 01:23:36;;;;;;;1.20;1.10;;;10.00;99.90;;;;;;5010498;28;20547;-48
2023/04/04 01:26:08;;;;;;;0.97;0.87;;;10.00;99.90;;;;;;5006090;28;20480;-49
2023/04/04 01:28:37;;;;;;;0.80;0.80;;;10.10;99.90;;;;;;5008028;28;20865;-50
2023/04/04 01:31:14;;;;;;;1.47;0.83;;;10.00;99.90;;;;;;5005389;28;20478;-49
2023/04/04 01:33:46;;;;;;;1.00;0.73;;;10.00;99.90;;;;;;5020222;28;20449;-49
2023/04/04 01:36:21;;;;;;;1.00;0.90;;;10.00;99.90;;;;;;5009079;28;20816;-48
2023/04/04 01:38:55;;;;;;;1.70;1.07;;;10.00;99.90;;;;;;5007524;28;20454;-47
2023/04/04 01:41:27;;;;;;;1.10;0.83;;;10.00;99.90;;;;;;5005381;28;20475;-47
2023/04/04 01:43:59;;;;;;;1.63;1.40;;;10.00;99.90;;;;;;5019400;28;20478;-49
2023/04/04 01:46:29;;;;;;;1.17;0.80;;;10.00;99.90;;;;;;5024933;28;20688;-49
2023/04/04 01:48:57;;;;;;;1.40;0.80;;;10.00;99.90;;;;;;5022718;28;20927;-49
2023/04/04 01:51:31;;;;;;;1.27;0.83;;;10.00;99.90;;;;;;5028336;28;20469;-49
2023/04/04 01:54:00;;;;;;;1.00;0.90;;;10.00;99.90;;;;;;5024797;28;20879;-49
2023/04/04 01:56:30;;;;;;;0.90;0.70;;;10.00;99.90;;;;;;5023275;28;20799;-49
2023/04/04 01:58:59;;;;;;;0.77;0.77;;;10.00;99.90;;;;;;5021403;28;20428;-49
2023/04/04 02:01:27;;;;;;;1.47;1.10;;;10.00;99.90;;;;;;5026551;28;20924;-48
2023/04/04 02:03:56;;;;;;;1.10;1.00;;;10.00;99.90;;;;;;5028649;28;20440;-49
2023/04/04 02:06:25;;;;;;;2.00;1.13;;;10.00;99.90;;;;;;5028514;28;20450;-49
2023/04/04 02:08:55;;;;;;;2.00;1.00;;;10.00;99.90;;;;;;5028718;28;20516;-49
2023/04/04 02:11:25;;;;;;;1.93;1.00;;;10.00;99.90;;;;;;5009540;28;20482;-50
2023/04/04 02:13:56;;;;;;;1.63;1.37;;;9.90;99.90;;;;;;5004233;28;20445;-49
2023/04/04 02:16:26;;;;;;;1.33;1.20;;;9.90;99.90;;;;;;5011995;28;20528;-47
2023/04/04 02:18:55;;;;;;;1.23;0.67;;;9.90;99.90;;;;;;5003808;28;20496;-47
2023/04/04 02:21:26;;;;;;;1.50;0.87;;;9.90;99.90;;;;;;5010144;28;20969;-48
2023/04/04 02:23:54;;;;;;;1.33;1.23;;;9.90;99.90;;;;;;5009765;28;20502;-49
2023/04/04 02:26:23;;;;;;;1.17;0.73;;;9.90;99.90;;;;;;5012778;28;20445;-47
2023/04/04 02:28:51;;;;;;;1.10;1.00;;;9.90;99.90;;;;;;5010373;28;20447;-49
2023/04/04 02:31:21;;;;;;;1.00;0.80;;;9.90;99.90;;;;;;5008199;28;20464;-48
2023/04/04 02:33:51;;;;;;;1.30;1.20;;;9.90;99.90;;;;;;5004740;28;20440;-48
2023/04/04 02:36:21;;;;;;;0.90;0.80;;;9.90;99.90;;;;;;5010118;28;20969;-48
2023/04/04 02:38:52;;;;;;;1.10;1.00;;;9.90;99.90;;;;;;5006707;28;20437;-48
2023/04/04 02:41:24;;;;;;;1.27;1.17;;;9.90;99.90;;;;;;5008917;28;20478;-49
2023/04/04 02:43:53;;;;;;;1.53;1.43;;;9.90;99.90;;;;;;5008640;28;20448;-49
2023/04/04 02:46:23;;;;;;;1.53;1.07;;;9.90;99.90;;;;;;5009161;28;20455;-48
2023/04/04 02:49:00;;;;;;;3.00;0.90;;;9.80;99.90;;;;;;4987570;28;20441;-47
2023/04/04 02:51:30;;;;;;;0.93;0.83;;;9.90;99.90;;;;;;5008922;28;20551;-49
2023/04/04 02:53:59;;;;;;;1.30;0.60;;;9.90;99.90;;;;;;5008726;28;20456;-48
2023/04/04 02:56:36;;;;;;;1.03;0.90;;;9.80;99.90;;;;;;5007228;28;20455;-47
2023/04/04 02:59:05;;;;;;;1.50;0.77;;;9.90;99.90;;;;;;5002028;28;20490;-49
2023/04/04 03:01:35;;;;;;;1.47;1.07;;;9.80;99.90;;;;;;5003667;28;20484;-47
2023/04/04 03:04:05;;;;;;;1.33;1.20;;;9.80;99.90;;;;;;5003552;28;20925;-48
2023/04/04 03:06:34;;;;;;;1.33;0.80;;;9.80;99.90;;;;;;5003177;28;20438;-48
2023/04/04 03:09:04;;;;;;;1.77;0.97;;;9.80;99.90;;;;;;5003472;28;20571;-49
2023/04/04 03:11:33;;;;;;;1.97;0.90;;;9.80;99.90;;;;;;5006376;28;20504;-48
2023/04/04 03:14:01;;;;;;;1.17;0.80;;;9.80;99.90;;;;;;5004101;28;20835;-47
2023/04/04 03:16:37;;;;;;;1.33;1.03;;;9.80;99.90;;;;;;5014085;28;20839;-48
2023/04/04 03:19:07;;;;;;;1.00;0.80;;;9.80;99.90;;;;;;5001428;28;20876;-49
2023/04/04 03:21:35;;;;;;;1.20;1.03;;;9.80;99.90;;;;;;5007516;28;20535;-49
2023/04/04 03:24:04;;;;;;;1.97;1.30;;;9.80;99.90;;;;;;5013227;28;20467;-48
2023/04/04 03:26:33;;;;;;;1.03;0.70;;;9.80;99.90;;;;;;5008651;28;20496;-48
2023/04/04 03:29:03;;;;;;;1.70;1.00;;;9.80;99.90;;;;;;5008818;28;20519;-47
2023/04/04 03:31:32;;;;;;;0.97;0.83;;;9.80;99.90;;;;;;5018419;28;20489;-48
2023/04/04 03:34:03;;;;;;;1.07;0.90;;;9.80;99.90;;;;;;5004492;28;20446;-47
2023/04/04 03:36:32;;;;;;;1.50;0.90;;;9.70;99.90;;;;;;5004414;28;20454;-47
2023/04/04 03:39:00;;;;;;;1.70;1.00;;;9.70;99.90;;;;;;5007097;28;20441;-49
2023/04/04 03:41:29;;;;;;;0.80;0.80;;;9.80;99.90;;;;;;5000488;28;20566;-49
2023/04/04 03:43:58;;;;;;;1.10;0.90;;;9.70;99.90;;;;;;5007603;28;20434;-48
2023/04/04 03:46:27;;;;;;;0.83;0.70;;;9.70;99.90;;;;;;5006913;28;20438;-48
2023/04/04 03:48:56;;;;;;;1.20;0.97;;;9.70;99.90;;;;;;5007958;28;20440;-47
2023/04/04 03:51:27;;;;;;;0.70;0.57;;;9.70;99.90;;;;;;5010657;28;20965;-49
2023/04/04 03:53:56;;;;;;;1.40;0.90;;;9.70;99.90;;;;;;5008102;28;20442;-48
2023/04/04 03:56:25;;;;;;;1.10;1.00;;;9.70;99.90;;;;;;5002646;28;20878;-49
2023/04/04 03:58:55;;;;;;;1.27;1.00;;;9.70;99.90;;;;;;5004981;28;20441;-49
2023/04/04 04:01:24;;;;;;;1.40;0.70;;;9.70;99.90;;;;;;5006379;28;20843;-48
2023/04/04 04:03:53;;;;;;;1.20;1.10;;;9.70;99.90;;;;;;4997547;28;20447;-48
2023/04/04 04:06:21;;;;;;;1.33;0.93;;;9.70;99.90;;;;;;5003377;28;20456;-48
2023/04/04 04:08:52;;;;;;;1.60;1.20;;;9.70;99.90;;;;;;5022500;28;20495;-49
2023/04/04 04:11:21;;;;;;;1.57;1.20;;;9.70;99.90;;;;;;5005480;28;21153;-47
2023/04/04 04:13:49;;;;;;;1.33;1.03;;;9.70;99.90;;;;;;5005759;28;20440;-47
2023/04/04 04:16:18;;;;;;;1.27;0.77;;;9.70;99.90;;;;;;5008546;28;20461;-49
2023/04/04 04:18:47;;;;;;;2.43;0.90;;;9.70;99.90;;;;;;5002272;28;20444;-48
2023/04/04 04:21:25;;;;;;;1.27;0.80;;;9.60;99.90;;;;;;5005593;28;21003;-48
2023/04/04 04:23:55;;;;;;;2.83;0.97;;;9.60;99.90;;;;;;5004246;28;20445;-49
2023/04/04 04:26:25;;;;;;;1.03;0.90;;;9.60;99.90;;;;;;5005258;28;21967;-48
2023/04/04 04:28:54;;;;;;;2.07;1.10;;;9.60;99.90;;;;;;5005776;28;20438;-49
2023/04/04 04:31:30;;;;;;;1.50;0.90;;;9.60;99.90;;;;;;5005819;28;20560;-49
2023/04/04 04:33:59;;;;;;;1.30;0.87;;;9.60;99.90;;;;;;5007401;28;20445;-50
2023/04/04 04:36:31;;;;;;;0.80;0.80;;;9.60;99.90;;;;;;5002760;28;20445;-49
2023/04/04 04:39:13;;;;;;;1.80;1.20;;;9.60;99.90;;;;;;5007679;28;21016;-49
2023/04/04 04:41:54;;;;;;;1.40;1.20;;;9.60;99.90;;;;;;5022201;28;20480;-49
2023/04/04 04:44:24;;;;;;;1.53;0.80;;;9.60;99.90;;;;;;5013425;28;20495;-50
2023/04/04 04:46:54;;;;;;;1.07;0.97;;;9.60;99.90;;;;;;5002487;28;20452;-47
2023/04/04 04:49:23;;;;;;;1.77;0.93;;;9.60;99.90;;;;;;5012667;28;20474;-49
2023/04/04 04:51:54;;;;;;;1.43;1.00;;;9.60;99.90;;;;;;5009233;28;20473;-48
2023/04/04 04:54:24;;;;;;;1.33;0.80;;;9.60;99.90;;;;;;5013115;28;20461;-48
2023/04/04 04:56:55;;;;;;;1.67;1.00;;;9.60;99.90;;;;;;5007487;28;20893;-48
2023/04/04 04:59:24;;;;;;;1.53;1.07;;;9.60;99.90;;;;;;5011819;28;20896;-49
2023/04/04 05:01:53;;;;;;;0.90;0.87;;;9.50;99.90;;;;;;5009660;28;20480;-49
2023/04/04 05:04:24;;;;;;;0.90;0.70;;;9.60;99.90;;;;;;5027704;28;20441;-47
2023/04/04 05:07:01;;;;;;;0.90;0.80;;;9.50;99.90;;;;;;5007244;28;20554;-48
2023/04/04 05:09:31;;;;;;;1.17;0.83;;;9.50;99.90;;;;;;5005425;28;20483;-49
2023/04/04 05:12:00;;;;;;;2.03;1.00;;;9.50;99.90;;;;;;5012851;28;21061;-49
2023/04/04 05:14:38;;;;;;;0.90;0.73;;;9.50;99.90;;;;;;5007188;28;20480;-48
2023/04/04 05:17:07;;;;;;;2.90;0.80;;;9.50;99.90;;;;;;5009054;28;20865;-47
2023/04/04 05:19:36;;;;;;;1.30;0.90;;;9.50;99.90;;;;;;5010637;28;20815;-48
2023/04/04 05:22:07;;;;;;;1.00;0.60;;;9.50;99.90;;;;;;5019620;28;20499;-48
2023/04/04 05:24:45;;;;;;;1.53;1.33;;;9.50;99.90;;;;;;5009166;28;20488;-47
2023/04/04 05:27:17;;;;;;;0.90;0.70;;;9.50;99.90;;;;;;5017625;28;20971;-49
2023/04/04 05:29:52;;;;;;;1.10;0.97;;;9.50;99.90;;;;;;5011792;28;20443;-49
2023/04/04 05:32:22;;;;;;;1.57;1.20;;;9.50;99.90;;;;;;5014001;28;20512;-48
2023/04/04 05:35:02;;;;;;;1.37;1.20;;;9.50;99.90;;;;;;5004922;28;21086;-49
2023/04/04 05:37:39;;;;;;;1.43;1.10;;;9.40;99.90;;;;;;5008803;28;20437;-48
2023/04/04 05:40:12;;;;;;;1.10;1.00;;;9.40;99.90;;;;;;5024318;28;20510;-48
2023/04/04 05:42:43;;;;;;;1.50;1.20;;;9.40;99.90;;;;;;5011067;28;20468;-48
2023/04/04 05:45:13;;;;;;;2.10;1.20;;;9.40;99.90;;;;;;5003746;28;20848;-46
2023/04/04 05:47:44;;;;;;;1.17;1.07;;;9.40;99.90;;;;;;5002760;28;20437;-48
2023/04/04 05:50:15;;;;;;;1.47;1.23;;;9.40;99.90;;;;;;5012097;28;20534;-50
2023/04/04 05:52:46;;;;;;;1.43;0.77;;;9.40;99.90;;;;;;5010672;28;20470;-49
2023/04/04 05:55:16;;;;;;;1.30;1.00;;;9.40;99.90;;;;;;5008467;28;20671;-49
2023/04/04 05:57:49;;;;;;;1.30;0.93;;;9.40;99.90;;;;;;5009485;28;20487;-48
2023/04/04 06:00:24;;;;;;;1.73;1.17;;;9.40;99.90;;;;;;5009593;28;20880;-47
2023/04/04 06:03:03;;;;;;;2.30;1.37;;;9.40;99.90;;;;;;5009835;28;20479;-47
2023/04/04 06:05:32;;;;;;;1.10;0.90;;;9.40;99.90;;;;;;5008911;28;20500;-50
2023/04/04 06:08:01;;;;;;;1.00;0.90;;;9.40;99.90;;;;;;5008559;28;20949;-51
2023/04/04 06:10:31;;;;;;;0.97;0.77;;;9.40;99.90;;;;;;5004068;28;20506;-49
2023/04/04 06:13:00;;;;;;;1.30;1.17;;;9.40;99.90;;;;;;5006076;28;20430;-49
2023/04/04 06:15:33;;;;;;;1.47;0.87;;;9.40;99.90;;;;;;5008072;28;20563;-47
2023/04/04 06:18:01;;;;;;;0.87;0.70;;;9.30;99.90;;;;;;5008347;28;20452;-48
2023/04/04 06:20:30;;;;;;;0.97;0.83;;;9.40;99.90;;;;;;5006506;28;20592;-48
2023/04/04 06:23:02;;;;;;;1.33;1.17;;;9.40;99.90;;;;;;5008764;28;20530;-47
2023/04/04 06:25:37;;;;;;;1.10;1.00;;;9.30;99.90;;;;;;5007634;28;20477;-46
2023/04/04 06:28:07;;;;;;;2.50;1.17;;;9.30;99.90;;;;;;5025460;28;20968;-49
2023/04/04 06:30:37;;;;;;;1.47;1.00;;;9.30;99.90;;;;;;5005704;28;20974;-50
2023/04/04 06:33:08;;;;;;;1.13;0.77;;;9.30;99.90;;;;;;5008954;28;20812;-48
2023/04/04 06:35:42;;;;;;;1.33;1.20;;;9.30;99.90;;;;;;5003153;28;20556;-46
2023/04/04 06:38:11;;;;;;;1.43;0.90;;;9.30;99.90;;;;;;5021711;28;20475;-48
2023/04/04 06:40:41;;;;;;;1.10;1.00;;;9.30;99.90;;;;;;5008277;28;20994;-48
2023/04/04 06:43:11;;;;;;;1.87;1.47;;;9.30;99.90;;;;;;5020997;28;20469;-49
2023/04/04 06:45:44;;;;;;;2.50;1.47;;;9.30;99.90;;;;;;5006001;28;20556;-48
2023/04/04 06:48:13;;;;;;;2.10;1.53;;;9.30;99.90;;;;;;5006570;28;20963;-47
2023/04/04 06:50:42;;;;;;;1.30;1.10;;;9.30;99.90;;;;;;5004816;28;20814;-49
2023/04/04 06:53:14;;;;;;;3.47;1.70;;;9.30;99.90;;;;;;5008898;28;20756;-48
2023/04/04 06:55:44;;;;;;;1.77;1.33;;;9.30;99.90;;;;;;5003973;28;20484;-49
2023/04/04 06:58:13;;;;;;;1.70;1.20;;;9.30;99.90;;;;;;5007128;28;20449;-47
2023/04/04 07:00:41;;;;;;;1.30;1.10;;;9.40;99.90;;;;;;5007015;28;20473;-49
2023/04/04 07:03:11;;;;;;;1.50;1.00;;;9.40;99.90;;;;;;5018664;28;20576;-48
2023/04/04 07:05:40;;;;;;;1.30;1.00;;;9.30;99.90;;;;;;5005132;28;20568;-46
2023/04/04 07:08:09;;;;;;;1.67;1.00;;;9.30;99.90;;;;;;5019501;28;20449;-50
2023/04/04 07:10:37;;;;;;;1.40;0.90;;;9.30;99.90;;;;;;5004726;28;20900;-46
2023/04/04 07:13:10;;;;;;;1.30;1.10;;;9.30;99.90;;;;;;5002180;28;20444;-48
2023/04/04 07:15:38;;;;;;;1.90;1.30;;;9.30;99.90;;;;;;5003624;28;20490;-47
2023/04/04 07:18:07;;;;;;;1.50;1.20;;;9.30;99.90;;;;;;5003790;28;20822;-47
2023/04/04 07:20:37;;;;;;;1.00;0.90;;;9.30;99.90;;;;;;5006749;28;21001;-49
2023/04/04 07:23:05;;;;;;;1.27;1.00;;;9.40;99.90;;;;;;5003942;28;20892;-48
2023/04/04 07:25:34;;;;;;;1.40;1.03;;;9.40;99.90;;;;;;5006424;28;20481;-47
2023/04/04 07:28:03;;;;;;;1.27;1.00;;;9.40;99.90;;;;;;5008808;28;20934;-49
2023/04/04 07:30:41;;;;;;;1.47;1.30;;;9.40;99.90;;;;;;5004661;28;20504;-47
2023/04/04 07:33:10;;;;;;;1.73;1.13;;;9.40;99.90;;;;;;5022045;28;20960;-49
2023/04/04 07:35:39;;;;;;;1.43;1.10;;;9.40;99.90;;;;;;4999167;28;20513;-48
2023/04/04 07:38:08;;;;;;;1.20;0.90;;;9.40;99.90;;;;;;5006366;28;20441;-48
2023/04/04 07:40:37;;;;;;;1.47;1.07;;;9.40;99.90;;;;;;5006959;28;20554;-47
2023/04/04 07:43:06;;;;;;;1.20;1.00;;;9.40;99.90;;;;;;5006843;28;20511;-49
2023/04/04 07:45:35;;;;;;;1.53;1.03;;;9.40;99.90;;;;;;4999728;28;20479;-47
2023/04/04 07:48:07;;;;;;;1.10;1.00;;;9.40;99.90;;;;;;5006245;28;20451;-49
2023/04/04 07:50:36;;;;;;;1.10;1.00;;;9.40;99.90;;;;;;4999595;28;20481;-48
2023/04/04 07:53:06;;;;;;;1.20;0.87;;;9.40;99.90;;;;;;5003197;28;20460;-48
2023/04/04 07:55:35;;;;;;;1.30;1.10;;;9.40;99.90;;;;;;5007604;28;20492;-48
2023/04/04 07:58:04;;;;;;;1.33;1.10;;;9.40;99.90;;;;;;5006731;28;20503;-49
2023/04/04 08:00:33;;;;;;;3.70;1.40;;;9.40;99.90;;;;;;5002401;28;20476;-47
2023/04/04 08:03:02;;;;;;;1.17;0.90;;;9.40;99.90;;;;;;5004197;28;21134;-47
2023/04/04 08:05:33;;;;;;;1.40;1.10;;;9.40;99.90;;;;;;5000477;28;20473;-47
2023/04/04 08:08:01;;;;;;;1.87;1.20;;;9.50;99.90;;;;;;5008930;28;20799;-50
2023/04/04 08:10:31;;;;;;;1.30;1.10;;;9.40;99.90;;;;;;5001408;28;20808;-47
2023/04/04 08:13:00;;;;;;;1.50;1.10;;;9.40;99.90;;;;;;5008478;28;20445;-49
2023/04/04 08:15:29;;;;;;;1.10;0.93;;;9.40;99.90;;;;;;5003273;28;20469;-47
2023/04/04 08:17:58;;;;;;;1.30;1.10;;;9.50;99.90;;;;;;5005877;28;20878;-46
2023/04/04 08:20:27;;;;;;;1.63;1.50;;;9.50;99.90;;;;;;4999588;28;20458;-47
2023/04/04 08:22:58;;;;;;;0.97;0.87;;;9.50;99.90;;;;;;5006177;28;20441;-47
2023/04/04 08:25:28;;;;;;;2.23;1.10;;;9.50;99.90;;;;;;5005663;28;20493;-48
2023/04/04 08:27:57;;;;;;;1.00;0.90;;;9.50;99.90;;;;;;5004528;28;20445;-49
2023/04/04 08:30:26;;;;;;;1.67;1.07;;;9.50;99.90;;;;;;5002656;28;20495;-48
2023/04/04 08:32:55;;;;;;;1.07;0.97;;;9.50;99.90;;;;;;5000720;28;20456;-47
2023/04/04 08:35:24;;;;;;;2.70;1.40;;;9.50;99.90;;;;;;5004391;28;20993;-49
2023/04/04 08:37:53;;;;;;;1.70;1.43;;;9.50;99.90;;;;;;5004558;28;20444;-48
2023/04/04 08:40:24;;;;;;;1.23;1.13;;;9.50;99.90;;;;;;5004542;28;20461;-49
2023/04/04 08:42:53;;;;;;;0.87;0.83;;;9.50;99.90;;;;;;5009815;28;20475;-47
2023/04/04 08:45:22;;;;;;;1.57;1.10;;;9.50;99.90;;;;;;5005630;28;20460;-50
2023/04/04 08:47:53;;;;;;;2.53;1.30;;;9.50;99.90;;;;;;5003118;28;20447;-48
2023/04/04 08:50:24;;;;;;;1.40;1.20;;;9.50;99.90;;;;;;5003616;28;20469;-48
2023/04/04 08:52:53;;;;;;;1.67;1.50;;;9.50;99.90;;;;;;5002273;28;20439;-47
2023/04/04 08:55:24;;;;;;;2.50;1.20;;;9.50;99.90;;;;;;5013524;28;20493;-49
2023/04/04 08:57:53;;;;;;;1.17;0.80;;;9.50;99.90;;;;;;5005542;28;20444;-46
2023/04/04 09:00:22;;;;;;;3.30;1.03;;;9.50;99.90;;;;;;5004774;28;20484;-49
2023/04/04 09:03:00;;;;;;;1.27;0.87;;;9.50;99.90;;;;;;5004003;28;20467;-48
2023/04/04 09:05:29;;;;;;;1.67;1.30;;;9.50;99.90;;;;;;5005354;28;20488;-48
2023/04/04 09:07:59;;;;;;;2.40;1.17;;;9.50;99.90;;;;;;5004330;28;20476;-48
2023/04/04 09:10:30;;;;;;;3.00;2.70;;;9.50;99.90;;;;;;5003873;28;20997;-47
2023/04/04 09:13:00;;;;;;;3.03;2.73;;;9.50;88.40;;;;;;5014175;28;20487;-47
2023/04/04 09:15:47;;;;;;;2.10;1.83;;;9.40;93.00;;;;;;5003498;28;20513;-48
2023/04/04 09:18:17;;;;;;;2.40;2.20;;;9.50;97.30;;;;;;5004658;28;20921;-48
2023/04/04 09:20:48;;;;;;;1.90;1.80;;;9.40;97.50;;;;;;5004437;28;20469;-49
2023/04/04 09:23:19;;;;;;;2.23;2.03;;;9.40;98.30;;;;;;5009439;28;20512;-49
2023/04/04 09:25:51;;;;;;;2.20;2.00;;;9.50;98.50;;;;;;5006456;28;20480;-48
2023/04/04 09:28:32;;;;;;;2.27;2.07;;;9.50;98.50;;;;;;5016568;28;20425;-49
2023/04/04 09:31:03;;;;;;;2.30;2.00;;;9.50;99.30;;;;;;5008821;28;20840;-49
2023/04/04 09:33:33;;;;;;;2.40;2.13;;;9.50;99.50;;;;;;5021578;28;20455;-48
2023/04/04 09:36:06;;;;;;;2.07;1.87;;;9.50;98.90;;;;;;5009721;28;21009;-47
2023/04/04 09:38:38;;;;;;;1.87;1.60;;;9.50;99.70;;;;;;5006703;28;20436;-50
2023/04/04 09:41:09;;;;;;;2.83;1.90;;;9.50;99.60;;;;;;5008361;28;20491;-47
2023/04/04 09:43:39;;;;;;;1.97;1.47;;;9.50;99.90;;;;;;5006860;28;20238;-48
2023/04/04 09:46:08;;;;;;;2.53;2.30;;;9.50;99.90;;;;;;5009244;28;20999;-49
2023/04/04 09:48:37;;;;;;;2.30;1.90;;;9.50;99.90;;;;;;5010172;28;20445;-49
2023/04/04 09:51:07;;;;;;;1.70;1.60;;;9.50;99.90;;;;;;5009107;28;20972;-49
2023/04/04 09:53:36;;;;;;;2.33;1.50;;;9.50;99.90;;;;;;5011575;28;20428;-49
2023/04/04 09:56:08;;;;;;;2.27;1.60;;;9.50;99.90;;;;;;5003890;28;20506;-50
2023/04/04 09:58:39;;;;;;;2.27;2.00;;;9.50;99.90;;;;;;5022152;28;20480;-48
2023/04/04 10:01:19;;;;;;;2.00;1.40;;;9.50;99.90;;;;;;5023099;28;20492;-49
2023/04/04 10:03:53;;;;;;;3.60;1.97;;;9.50;99.90;;;;;;5000946;28;20487;-47
2023/04/04 10:06:22;;;;;;;2.03;1.63;;;9.50;99.90;;;;;;5003590;28;20883;-49
2023/04/04 10:08:51;;;;;;;1.70;1.60;;;9.50;99.90;;;;;;5008512;28;20434;-49
2023/04/04 10:11:32;;;;;;;3.53;1.70;;;9.50;99.90;;;;;;5003097;28;20481;-51
2023/04/04 10:14:02;;;;;;;2.40;1.70;;;9.50;99.90;;;;;;5009939;28;20787;-49
2023/04/04 10:16:33;;;;;;;1.63;1.53;;;9.50;99.90;;;;;;5008792;28;20461;-47
2023/04/04 10:19:03;;;;;;;2.00;1.60;;;9.50;99.90;;;;;;5003809;28;20488;-49
2023/04/04 10:21:32;;;;;;;1.90;1.50;;;9.50;99.90;;;;;;5009743;28;20488;-49
2023/04/04 10:24:07;;;;;;;2.63;2.43;;;9.50;99.90;;;;;;5006475;28;20784;-49
2023/04/04 10:26:38;;;;;;;2.23;1.73;;;9.50;99.90;;;;;;5012568;28;20441;-48
2023/04/04 10:29:07;;;;;;;1.90;1.60;;;9.50;99.90;;;;;;5004815;28;20428;-49
2023/04/04 10:31:40;;;;;;;2.03;1.67;;;9.40;99.90;;;;;;5008462;28;20504;-49
2023/04/04 10:34:12;;;;;;;2.30;1.80;;;9.50;99.90;;;;;;5005028;28;20197;-48
2023/04/04 10:36:50;;;;;;;2.23;1.40;;;9.50;99.90;;;;;;5010122;28;20440;-48
2023/04/04 10:39:24;;;;;;;2.53;2.33;;;9.40;99.90;;;;;;5010775;28;20552;-48
2023/04/04 10:41:56;;;;;;;2.40;1.40;;;9.40;99.90;;;;;;5009196;28;20468;-49
2023/04/04 10:44:30;;;;;;;2.80;1.80;;;9.40;99.90;;;;;;5007810;28;20440;-48
2023/04/04 10:47:04;;;;;;;2.27;1.60;;;9.50;99.90;;;;;;5006348;28;20536;-48
2023/04/04 10:49:33;;;;;;;2.23;1.73;;;9.40;99.90;;;;;;5016261;28;20548;-49
2023/04/04 10:52:02;;;;;;;2.37;1.63;;;9.40;99.90;;;;;;5005553;28;20463;-51
2023/04/04 10:54:32;;;;;;;2.15;1.80;;;9.40;99.00;;;;;;5005905;28;20450;-50
2023/04/04 10:57:03;;;;;;;3.50;2.37;;;9.50;98.50;;;;;;5019942;28;20917;-47
2023/04/04 10:59:32;;;;;;;2.40;2.20;;;9.60;96.30;;;;;;5016802;28;20585;-49
2023/04/04 11:02:02;;;;;;;3.50;2.40;;;9.70;96.00;;;;;;5003363;28;20523;-47
2023/04/04 11:04:33;;;;;;;3.90;3.13;;;9.70;93.70;;;;;;5005523;28;20455;-49
2023/04/04 11:07:11;;;;;;;3.00;2.63;;;9.70;90.70;;;;;;5004184;28;20436;-49
2023/04/04 11:09:48;;;;;;;3.57;1.90;;;9.70;91.00;;;;;;4998454;28;20515;-48
2023/04/04 11:12:22;;;;;;;2.50;2.30;;;9.70;93.00;;;;;;5002927;28;20464;-47
2023/04/04 11:15:13;;;;;;;3.10;2.80;;;9.70;92.90;;;;;;5008187;28;20475;-48
2023/04/04 11:18:11;;;;;;;3.07;2.57;;;9.70;93.70;;;;;;5003523;28;20448;-49
2023/04/04 11:21:04;;;;;;;2.90;2.33;;;9.70;93.20;;;;;;5015258;28;20471;-48
2023/04/04 11:24:15;;;;;;;2.93;1.80;;;9.80;93.40;;;;;;5019745;28;20796;-49
2023/04/04 11:26:46;;;;;;;1.93;1.70;;;9.80;94.50;;;;;;5017533;28;20476;-47
2023/04/04 11:29:43;;;;;;;2.60;1.90;;;9.80;95.00;;;;;;4997891;28;20458;-48
2023/04/04 11:32:29;;;;;;;1.97;1.77;;;9.80;94.90;;;;;;5019545;28;20547;-48
2023/04/04 11:34:58;;;;;;;2.87;2.60;;;9.90;95.00;;;;;;4998679;28;20504;-50
2023/04/04 11:37:31;;;;;;;3.37;1.93;;;9.90;94.80;;;;;;5004393;28;20480;-49
2023/04/04 11:40:11;;;;;;;2.93;2.00;;;9.80;95.30;;;;;;5000947;28;20575;-48
2023/04/04 11:42:41;;;;;;;3.77;2.40;;;9.80;95.80;;;;;;5004757;28;20860;-48
2023/04/04 11:45:19;;;;;;;2.67;2.13;;;9.90;95.20;;;;;;5004192;28;21025;-49
2023/04/04 11:47:50;;;;;;;1.93;1.70;;;9.80;94.90;;;;;;5000900;28;20440;-49
2023/04/04 11:50:19;;;;;;;2.27;1.93;;;9.90;96.50;;;;;;5004798;28;20465;-49
2023/04/04 11:52:50;;;;;;;2.23;1.77;;;9.80;96.30;;;;;;5005485;28;20461;-47
2023/04/04 11:55:21;;;;;;;3.10;1.87;;;9.90;97.20;;;;;;5006274;28;20465;-47
2023/04/04 11:57:51;;;;;;;2.30;1.90;;;9.80;96.70;;;;;;4999735;28;20446;-49
2023/04/04 12:00:33;;;;;;;2.10;1.90;;;9.80;95.90;;;;;;5001755;28;20468;-49
2023/04/04 12:03:11;;;;;;;3.70;1.90;;;9.90;96.80;;;;;;5023737;28;20448;-46
2023/04/04 12:05:43;;;;;;;2.53;2.20;;;9.80;96.90;;;;;;4990303;28;20472;-49
2023/04/04 12:08:12;;;;;;;3.00;1.50;;;9.80;97.60;;;;;;5021577;28;20434;-50
2023/04/04 12:10:43;;;;;;;2.40;1.60;;;9.90;98.10;;;;;;5002446;28;20477;-45
2023/04/04 12:13:12;;;;;;;3.73;1.87;;;9.90;97.80;;;;;;5010936;28;20984;-48
2023/04/04 12:15:44;;;;;;;3.00;2.47;;;9.90;98.20;;;;;;5005296;28;20993;-48
2023/04/04 12:18:21;;;;;;;3.20;2.00;;;9.90;96.00;;;;;;5005848;28;20441;-49
2023/04/04 12:20:51;;;;;;;1.57;1.47;;;9.90;97.80;;;;;;5004006;28;20482;-50
2023/04/04 12:23:20;;;;;;;1.90;1.73;;;9.90;97.40;;;;;;5004656;28;20819;-48
2023/04/04 12:25:53;;;;;;;3.90;2.83;;;9.90;97.80;;;;;;5005226;28;21012;-48
2023/04/04 12:28:22;;;;;;;1.83;1.73;;;9.90;97.60;;;;;;5018968;28;20842;-48
2023/04/04 12:30:55;;;;;;;2.10;1.73;;;9.90;97.70;;;;;;5003835;28;20485;-48
2023/04/04 12:33:24;;;;;;;2.77;1.90;;;9.90;97.50;;;;;;5005804;28;20465;-50
2023/04/04 12:35:53;;;;;;;2.00;1.47;;;9.90;94.80;;;;;;5013298;28;20476;-49
2023/04/04 12:38:23;;;;;;;1.80;1.40;;;9.90;97.40;;;;;;5012040;28;20426;-48
2023/04/04 12:40:52;;;;;;;2.90;1.67;;;9.90;97.30;;;;;;5005088;28;20599;-48
2023/04/04 12:43:21;;;;;;;2.17;1.47;;;9.90;98.00;;;;;;5006421;28;20472;-49
2023/04/04 12:45:51;;;;;;;2.30;1.80;;;9.90;97.70;;;;;;5004983;28;20480;-48
2023/04/04 12:48:28;;;;;;;2.60;1.57;;;9.90;97.30;;;;;;5003996;28;20455;-48
2023/04/04 12:50:58;;;;;;;1.90;1.33;;;9.90;96.00;;;;;;5012214;28;20480;-48
2023/04/04 12:53:28;;;;;;;2.43;2.20;;;9.90;97.40;;;;;;5002527;28;20477;-49
2023/04/04 12:56:03;;;;;;;2.57;1.80;;;9.90;95.70;;;;;;5009192;28;20455;-47
2023/04/04 12:58:32;;;;;;;2.20;2.00;;;9.90;97.10;;;;;;5009828;28;20507;-49
2023/04/04 13:01:05;;;;;;;2.70;2.17;;;9.90;96.40;;;;;;5010082;28;20830;-49
2023/04/04 13:03:36;;;;;;;2.60;2.10;;;9.90;96.90;;;;;;5007534;28;20472;-50
2023/04/04 13:06:12;;;;;;;1.80;1.60;;;9.90;96.60;;;;;;5004836;28;20487;-48
2023/04/04 13:08:50;;;;;;;2.10;1.80;;;9.90;95.80;;;;;;5010697;28;20523;-47
2023/04/04 13:11:20;;;;;;;2.73;2.07;;;9.90;95.70;;;;;;5022533;28;20554;-47
2023/04/04 13:13:59;;;;;;;2.50;1.60;;;9.90;96.30;;;;;;5007068;28;20452;-48
2023/04/04 13:16:34;;;;;;;1.20;1.10;;;9.90;97.80;;;;;;5009249;28;20462;-48